This is the latest recevied weather packets stored in our database for station/object EA3ANS-1. If no packets are shown the sender has not sent any weather packets the latest 10 day(s).
| Time | Temp. | Humidity | Pressure | Rain* | Wind** | Luminosity | Snow |
|---|---|---|---|---|---|---|---|
| 1777705973 | 17.22° C | - | 1022.7 hPa | 0 mm | 0.89 m/s, 80° | - | - |
| 1777705368 | 17.78° C | - | 1022.7 hPa | 0 mm | 0.45 m/s, 111° | - | - |
| 1777704770 | 17.22° C | - | 1022.7 hPa | 0 mm | 0.45 m/s, 124° | - | - |
| 1777704162 | 17.78° C | - | 1022.8 hPa | 0 mm | 0 m/s | - | - |
| 1777703565 | 17.78° C | - | 1022.6 hPa | 0 mm | 0.45 m/s, 56° | - | - |
| 1777702967 | 17.78° C | - | 1022.6 hPa | 0 mm | 0.89 m/s, 69° | - | - |
| 1777702370 | 17.78° C | - | 1022.4 hPa | 0 mm | 2.24 m/s, 60° | - | - |
| 1777701769 | 17.22° C | - | 1022.4 hPa | 0 mm | 1.34 m/s, 60° | - | - |
| 1777701146 | 17.22° C | - | 1022.1 hPa | 0 mm | 1.79 m/s, 25° | - | - |
| 1777700549 | 17.22° C | - | 1022 hPa | 0 mm | 0.89 m/s, 55° | - | - |
| 1777699951 | 17.22° C | - | 1022 hPa | 0 mm | 0.89 m/s, 79° | - | - |
| 1777699354 | 16.67° C | - | 1021.9 hPa | 0 mm | 2.24 m/s, 68° | - | - |
| 1777698746 | 16.67° C | - | 1022.3 hPa | 0 mm | 0.89 m/s, 90° | - | - |
| 1777698149 | 16.67° C | - | 1022.2 hPa | 0 mm | 0.89 m/s, 30° | - | - |
| 1777697552 | 16.67° C | - | 1022.1 hPa | 0 mm | 0 m/s | - | - |
| 1777696946 | 17.22° C | - | 1022.1 hPa | 0 mm | 0.89 m/s, 76° | - | - |
| 1777696349 | 16.67° C | - | 1022.1 hPa | 0 mm | 0.45 m/s, 117° | - | - |
| 1777695750 | 16.67° C | - | 1022.2 hPa | 0 mm | 1.34 m/s, 113° | - | - |
| 1777695144 | 17.22° C | - | 1022.2 hPa | 0 mm | 0 m/s | - | - |
| 1777694546 | 17.22° C | - | 1022.1 hPa | 0 mm | 0 m/s | - | - |
| 1777693948 | 16.67° C | - | 1022 hPa | 0 mm | 1.34 m/s, 96° | - | - |
| 1777693350 | 16.67° C | - | 1022.1 hPa | 0 mm | 0.45 m/s, 128° | - | - |
| 1777692746 | 16.67° C | - | 1022.1 hPa | 0 mm | 0 m/s | - | - |
| 1777692147 | 17.22° C | - | 1022.1 hPa | 0 mm | 1.34 m/s, 46° | - | - |
| 1777691543 | 17.22° C | - | 1022 hPa | 0 mm | 0.45 m/s, 107° | - | - |
* Rain latest hour (hover to see other rain measurements)
** Current wind speed in m/s (hover to see current wind gust speed)